createdAt,value
2019-03-05T00:01:06.424Z,0.73
2019-03-05T00:03:34.860Z,1.05
2019-03-05T00:06:03.332Z,0.30
2019-03-05T00:08:31.765Z,1.40
2019-03-05T00:11:00.183Z,0.70
2019-03-05T00:13:28.696Z,0.57
2019-03-05T00:15:57.094Z,0.90
2019-03-05T00:18:25.762Z,0.68
2019-03-05T00:20:54.192Z,1.70
2019-03-05T00:23:42.151Z,2.10
2019-03-05T00:26:10.592Z,0.70
2019-03-05T00:28:51.175Z,0.90
2019-03-05T00:31:25.310Z,1.15
2019-03-05T00:34:02.722Z,1.23
2019-03-05T00:36:37.140Z,0.80
2019-03-05T00:39:30.724Z,1.40
2019-03-05T00:42:11.268Z,1.03
2019-03-05T00:45:14.900Z,1.53
2019-03-05T00:48:17.023Z,1.70
2019-03-05T00:51:24.991Z,2.03
2019-03-05T00:54:25.346Z,1.03
2019-03-05T00:56:59.736Z,1.07
2019-03-05T00:59:34.013Z,0.30
2019-03-05T01:02:34.390Z,1.10
2019-03-05T01:05:17.989Z,1.10
2019-03-05T01:07:46.408Z,0.70
2019-03-05T01:10:16.529Z,0.83
2019-03-05T01:12:45.205Z,1.07
2019-03-05T01:15:13.981Z,1.17
2019-03-05T01:17:42.399Z,0.95
2019-03-05T01:20:12.169Z,1.37
2019-03-05T01:22:40.579Z,1.10
2019-03-05T01:25:28.516Z,0.97
2019-03-05T01:27:56.981Z,1.33
2019-03-05T01:30:41.371Z,0.73
2019-03-05T01:33:11.435Z,1.57
2019-03-05T01:35:41.564Z,1.12
2019-03-05T01:38:10.057Z,1.33
2019-03-05T01:40:39.110Z,0.93
2019-03-05T01:43:07.523Z,0.68
2019-03-05T01:45:35.946Z,0.97
2019-03-05T01:48:04.351Z,1.27
2019-03-05T01:50:32.813Z,0.73
2019-03-05T01:53:01.211Z,0.83
2019-03-05T01:55:29.669Z,1.60
2019-03-05T01:57:58.247Z,0.80
2019-03-05T02:00:26.925Z,0.70
2019-03-05T02:02:55.344Z,1.30
2019-03-05T02:05:23.935Z,0.80
2019-03-05T02:07:52.908Z,1.17
2019-03-05T02:10:22.619Z,0.70
2019-03-05T02:12:51.052Z,2.70
2019-03-05T02:15:19.526Z,1.57
2019-03-05T02:17:48.034Z,1.53
2019-03-05T02:20:24.626Z,1.13
2019-03-05T02:22:58.855Z,1.17
2019-03-05T02:25:33.088Z,1.33
2019-03-05T02:28:27.103Z,1.17
2019-03-05T02:31:07.847Z,1.07
2019-03-05T02:34:03.452Z,1.90
2019-03-05T02:36:51.142Z,0.47
2019-03-05T02:39:37.619Z,1.03
2019-03-05T02:42:09.106Z,1.27
2019-03-05T02:45:03.448Z,1.30
2019-03-05T02:47:40.143Z,1.77
2019-03-05T02:50:33.007Z,1.17
2019-03-05T02:53:38.025Z,1.30
2019-03-05T02:56:18.570Z,1.43
2019-03-05T02:58:45.929Z,1.20
2019-03-05T03:01:32.228Z,1.47
2019-03-05T03:04:02.295Z,1.43
2019-03-05T03:06:31.304Z,1.47
2019-03-05T03:09:25.231Z,1.27
2019-03-05T03:11:53.645Z,1.33
2019-03-05T03:14:22.068Z,1.67
2019-03-05T03:16:50.504Z,3.23
2019-03-05T03:19:18.967Z,1.60
2019-03-05T03:21:47.406Z,1.87
2019-03-05T03:24:15.814Z,0.77
2019-03-05T03:26:44.235Z,1.20
2019-03-05T03:29:12.652Z,2.20
2019-03-05T03:31:41.068Z,1.83
2019-03-05T03:34:09.501Z,1.27
2019-03-05T03:36:37.892Z,1.27
2019-03-05T03:39:06.762Z,1.60
2019-03-05T03:41:35.187Z,1.63
2019-03-05T03:44:03.619Z,1.23
2019-03-05T03:46:32.021Z,2.40
2019-03-05T03:49:00.459Z,1.17
2019-03-05T03:51:28.857Z,0.53
2019-03-05T03:53:57.286Z,0.95
2019-03-05T03:56:25.726Z,0.70
2019-03-05T03:58:54.123Z,0.43
2019-03-05T04:01:22.611Z,1.20
2019-03-05T04:03:51.009Z,1.60
2019-03-05T04:06:19.440Z,0.87
2019-03-05T04:08:47.842Z,1.30
2019-03-05T04:11:16.253Z,1.10
2019-03-05T04:13:44.664Z,0.93
2019-03-05T04:16:13.090Z,0.93
2019-03-05T04:18:41.492Z,1.47
2019-03-05T04:21:09.933Z,1.50
2019-03-05T04:23:38.403Z,0.83
2019-03-05T04:26:06.841Z,1.37
2019-03-05T04:28:35.273Z,1.73
2019-03-05T04:31:03.695Z,1.13
2019-03-05T04:33:32.103Z,1.40
2019-03-05T04:36:00.528Z,0.43
2019-03-05T04:38:28.984Z,2.57
2019-03-05T04:40:57.394Z,2.30
2019-03-05T04:43:25.819Z,1.20
2019-03-05T04:46:01.576Z,0.90
2019-03-05T04:48:30.009Z,2.20
2019-03-05T04:51:00.134Z,1.77
2019-03-05T04:53:28.552Z,0.93
2019-03-05T04:55:56.981Z,2.07
2019-03-05T04:58:25.426Z,1.20
2019-03-05T05:00:53.824Z,1.90
2019-03-05T05:03:22.259Z,0.47
2019-03-05T05:05:50.652Z,1.77
2019-03-05T05:08:19.088Z,0.90
2019-03-05T05:10:47.474Z,0.70
2019-03-05T05:13:15.972Z,1.50
2019-03-05T05:15:44.401Z,0.77
2019-03-05T05:18:12.880Z,2.13
2019-03-05T05:20:41.304Z,1.90
2019-03-05T05:23:09.750Z,1.03
2019-03-05T05:25:38.188Z,1.43
2019-03-05T05:28:06.596Z,2.17
2019-03-05T05:30:39.942Z,0.67
2019-03-05T05:33:09.178Z,0.70
2019-03-05T05:35:37.839Z,1.10
2019-03-05T05:38:06.318Z,1.50
2019-03-05T05:40:36.694Z,1.47
2019-03-05T05:43:07.258Z,1.57
2019-03-05T05:45:44.475Z,1.57
2019-03-05T05:48:12.974Z,1.63
2019-03-05T05:50:41.419Z,1.13
2019-03-05T05:53:09.922Z,1.70
2019-03-05T05:55:38.316Z,1.60
2019-03-05T05:58:06.715Z,1.93
2019-03-05T06:00:36.789Z,1.43
2019-03-05T06:03:05.282Z,1.57
2019-03-05T06:05:33.703Z,1.37
2019-03-05T06:08:02.132Z,1.87
2019-03-05T06:10:30.578Z,2.43
2019-03-05T06:12:58.999Z,1.33
2019-03-05T06:15:27.404Z,2.37
2019-03-05T06:17:55.830Z,1.27
2019-03-05T06:20:24.235Z,0.77
2019-03-05T06:22:52.674Z,1.33
2019-03-05T06:25:21.103Z,2.83
2019-03-05T06:27:49.528Z,1.27
2019-03-05T06:30:20.122Z,1.50
2019-03-05T06:32:48.549Z,1.47
2019-03-05T06:35:17.059Z,1.80
2019-03-05T06:37:45.486Z,1.67
2019-03-05T06:40:16.693Z,0.97
2019-03-05T06:42:45.200Z,1.40
2019-03-05T06:45:18.248Z,1.80
2019-03-05T06:47:46.692Z,1.87
2019-03-05T06:50:22.112Z,3.27
2019-03-05T06:52:51.101Z,1.67
2019-03-05T06:55:19.519Z,3.10
2019-03-05T06:57:47.939Z,1.80
2019-03-05T07:00:40.710Z,1.07
2019-03-05T07:03:10.277Z,0.60
2019-03-05T07:06:14.932Z,1.17
2019-03-05T07:08:49.282Z,3.07
2019-03-05T07:11:29.336Z,1.83
2019-03-05T07:14:03.659Z,1.40
2019-03-05T07:16:37.689Z,1.60
2019-03-05T07:19:06.631Z,0.77
2019-03-05T07:21:49.980Z,2.07
2019-03-05T07:24:42.560Z,1.57
2019-03-05T07:27:11.324Z,1.40
2019-03-05T07:29:39.799Z,0.90
2019-03-05T07:32:08.236Z,0.53
2019-03-05T07:34:38.295Z,1.80
2019-03-05T07:37:09.266Z,2.13
2019-03-05T07:39:37.684Z,2.10
2019-03-05T07:42:06.191Z,0.90
2019-03-05T07:44:34.612Z,2.27
2019-03-05T07:47:03.014Z,1.57
2019-03-05T07:49:42.963Z,1.00
2019-03-05T07:52:01.571Z,0.70
2019-03-05T07:54:30.010Z,1.50
2019-03-05T07:56:58.447Z,0.97
2019-03-05T07:59:26.879Z,1.27
2019-03-05T08:01:55.297Z,1.23
2019-03-05T08:04:23.721Z,2.02
2019-03-05T08:06:52.133Z,1.10
2019-03-05T08:09:33.579Z,2.27
2019-03-05T08:12:25.080Z,0.97
2019-03-05T08:15:02.362Z,0.60
2019-03-05T08:17:30.832Z,2.25
2019-03-05T08:19:59.327Z,2.20
2019-03-05T08:22:27.727Z,4.47
2019-03-05T08:24:56.231Z,1.20
2019-03-05T08:27:24.629Z,2.00
2019-03-05T08:29:53.060Z,1.03
2019-03-05T08:32:21.481Z,2.63
2019-03-05T08:34:49.899Z,1.27
2019-03-05T08:37:18.300Z,2.17
2019-03-05T08:39:46.798Z,1.67
2019-03-05T08:42:15.199Z,4.23
2019-03-05T08:44:50.309Z,0.75
2019-03-05T08:47:13.803Z,1.63
2019-03-05T08:49:42.291Z,1.73
2019-03-05T08:52:10.745Z,1.25
2019-03-05T08:54:39.159Z,2.03
2019-03-05T08:57:07.578Z,1.57
2019-03-05T08:59:36.018Z,2.77
2019-03-05T09:02:04.512Z,2.10
2019-03-05T09:04:32.929Z,3.33
2019-03-05T09:07:01.391Z,3.33
2019-03-05T09:09:29.951Z,1.80
2019-03-05T09:11:58.654Z,3.50
2019-03-05T09:14:27.062Z,2.10
2019-03-05T09:16:55.513Z,1.60
2019-03-05T09:19:23.937Z,2.00
2019-03-05T09:21:52.376Z,1.30
2019-03-05T09:24:20.769Z,1.70
2019-03-05T09:26:51.417Z,1.73
2019-03-05T09:29:20.607Z,2.20
2019-03-05T09:31:49.037Z,2.03
2019-03-05T09:34:17.491Z,2.00
2019-03-05T09:36:50.945Z,3.20
2019-03-05T09:39:16.389Z,1.60
2019-03-05T09:41:44.961Z,2.23
2019-03-05T09:44:13.375Z,1.23
2019-03-05T09:46:41.786Z,1.40
2019-03-05T09:49:10.314Z,2.33
2019-03-05T09:51:38.703Z,1.27
2019-03-05T09:54:07.173Z,3.10
2019-03-05T09:56:35.609Z,1.30
2019-03-05T09:59:05.659Z,1.60
2019-03-05T10:01:34.153Z,1.50
2019-03-05T10:04:02.727Z,1.00
2019-03-05T10:06:31.197Z,1.45
2019-03-05T10:08:59.583Z,2.20
2019-03-05T10:11:28.027Z,1.10
2019-03-05T10:13:56.438Z,2.35
2019-03-05T10:16:24.846Z,2.92
2019-03-05T10:18:53.283Z,1.57
2019-03-05T10:21:21.707Z,1.97
2019-03-05T10:23:50.299Z,1.47
2019-03-05T10:26:18.917Z,3.58
2019-03-05T10:28:47.426Z,2.07
2019-03-05T10:31:18.502Z,2.17
2019-03-05T10:33:46.222Z,2.30
2019-03-05T10:36:14.691Z,0.62
2019-03-05T10:38:43.125Z,1.83
2019-03-05T10:41:11.718Z,2.47
2019-03-05T10:43:40.126Z,2.70
2019-03-05T10:46:08.615Z,3.20
2019-03-05T10:48:37.035Z,0.72
2019-03-05T10:51:05.960Z,2.12
2019-03-05T10:53:34.467Z,1.75
2019-03-05T10:56:02.954Z,2.40
2019-03-05T10:58:34.186Z,2.77
2019-03-05T11:01:01.992Z,2.53
2019-03-05T11:03:31.056Z,2.17
2019-03-05T11:05:59.916Z,2.73
2019-03-05T11:08:28.616Z,0.55
2019-03-05T11:10:57.471Z,1.33
2019-03-05T11:13:25.976Z,1.60
2019-03-05T11:16:02.395Z,1.17
2019-03-05T11:18:30.831Z,1.53
2019-03-05T11:20:59.586Z,1.37
2019-03-05T11:23:28.006Z,1.35
2019-03-05T11:25:56.422Z,1.87
2019-03-05T11:28:24.886Z,1.87
2019-03-05T11:30:53.462Z,1.80
2019-03-05T11:33:22.240Z,1.80
2019-03-05T11:35:50.840Z,2.30
2019-03-05T11:38:19.960Z,3.17
2019-03-05T11:40:48.500Z,3.10
2019-03-05T11:43:17.871Z,0.82
2019-03-05T11:45:46.520Z,4.00
2019-03-05T11:48:16.006Z,1.67
2019-03-05T11:50:44.974Z,1.80
2019-03-05T11:53:13.518Z,2.20
2019-03-05T11:55:42.121Z,1.70
2019-03-05T11:58:10.588Z,2.08
2019-03-05T12:00:41.005Z,2.35
2019-03-05T12:03:09.477Z,2.00
2019-03-05T12:05:37.905Z,1.82
2019-03-05T12:08:06.376Z,2.45
2019-03-05T12:10:35.071Z,1.25
2019-03-05T12:13:03.835Z,1.85
2019-03-05T12:15:44.110Z,2.02
2019-03-05T12:18:12.642Z,1.00
2019-03-05T12:20:41.193Z,1.30
2019-03-05T12:23:10.355Z,2.40
2019-03-05T12:25:41.074Z,2.40
2019-03-05T12:28:10.995Z,1.27
2019-03-05T12:30:40.143Z,1.60
2019-03-05T12:33:08.719Z,1.57
2019-03-05T12:35:37.212Z,2.85
2019-03-05T12:38:06.065Z,1.35
2019-03-05T12:40:34.480Z,2.15
2019-03-05T12:43:02.990Z,1.42
2019-03-05T12:45:31.419Z,0.70
2019-03-05T12:47:59.830Z,2.08
2019-03-05T12:50:30.108Z,1.60
2019-03-05T12:52:58.803Z,1.45
2019-03-05T12:55:27.491Z,1.45
2019-03-05T12:57:56.004Z,2.85
2019-03-05T13:00:35.066Z,1.60
2019-03-05T13:03:04.160Z,1.95
2019-03-05T13:05:32.656Z,1.52
2019-03-05T13:08:01.091Z,2.85
2019-03-05T13:10:34.939Z,1.27
2019-03-05T13:13:01.230Z,1.30
2019-03-05T13:15:38.814Z,1.95
2019-03-05T13:18:07.319Z,1.22
2019-03-05T13:20:35.762Z,1.25
2019-03-05T13:23:08.849Z,1.47
2019-03-05T13:25:34.584Z,1.22
2019-03-05T13:28:04.212Z,2.35
2019-03-05T13:30:33.225Z,0.90
2019-03-05T13:33:01.833Z,1.50
2019-03-05T13:35:32.028Z,2.27
2019-03-05T13:38:03.224Z,2.15
2019-03-05T13:40:34.029Z,1.80
2019-03-05T13:43:03.107Z,1.82
2019-03-05T13:45:31.611Z,1.20
2019-03-05T13:48:19.650Z,1.47
2019-03-05T13:51:19.431Z,1.25
2019-03-05T13:54:05.715Z,1.37
2019-03-05T13:56:42.206Z,1.75
2019-03-05T13:59:37.522Z,5.70
2019-03-05T14:02:07.704Z,2.15
2019-03-05T14:05:00.464Z,1.60
2019-03-05T14:08:00.698Z,1.37
2019-03-05T14:10:29.116Z,5.67
2019-03-05T14:12:57.561Z,2.12
2019-03-05T14:15:26.107Z,1.02
2019-03-05T14:17:54.524Z,4.33
2019-03-05T14:20:31.607Z,1.40
2019-03-05T14:22:53.092Z,2.47
2019-03-05T14:25:21.546Z,6.62
2019-03-05T14:27:49.945Z,1.72
2019-03-05T14:30:21.144Z,1.72
2019-03-05T14:32:50.182Z,2.00
2019-03-05T14:35:19.654Z,2.12
2019-03-05T14:37:48.499Z,3.58
2019-03-05T14:40:24.749Z,2.03
2019-03-05T14:42:53.250Z,238.30
2019-03-05T14:45:27.638Z,405.70
2019-03-05T14:47:57.833Z,366.85
2019-03-05T14:50:26.253Z,941.30
2019-03-05T14:52:54.685Z,893.13
2019-03-05T14:55:23.343Z,324.85
2019-03-05T14:57:51.985Z,313.45
2019-03-05T15:00:21.640Z,254.47
2019-03-05T15:02:50.202Z,139.70
2019-03-05T15:05:18.765Z,79.12
2019-03-05T15:07:47.166Z,51.73
2019-03-05T15:10:15.699Z,48.08
2019-03-05T15:12:44.144Z,27.75
2019-03-05T15:15:15.581Z,23.15
2019-03-05T15:17:43.983Z,17.12
2019-03-05T15:20:12.617Z,11.05
2019-03-05T15:22:41.012Z,143.37
2019-03-05T15:25:12.074Z,113.50
2019-03-05T15:27:40.486Z,67.10
2019-03-05T15:30:14.769Z,130.05
2019-03-05T15:32:43.238Z,47.15
2019-03-05T15:35:12.768Z,21.33
2019-03-05T15:37:41.235Z,13.78
2019-03-05T15:40:15.276Z,14.55
2019-03-05T15:42:43.793Z,11.25
2019-03-05T15:45:22.837Z,11.53
2019-03-05T15:47:51.272Z,9.50
2019-03-05T15:50:30.014Z,8.70
2019-03-05T15:52:58.423Z,8.83
2019-03-05T15:55:27.307Z,2.77
2019-03-05T15:57:55.735Z,288.18
2019-03-05T16:00:30.484Z,1039.45
2019-03-05T16:02:59.549Z,319.30
2019-03-05T16:05:28.820Z,160.00
2019-03-05T16:07:57.241Z,154.42
2019-03-05T16:10:25.701Z,107.80
2019-03-05T16:12:54.100Z,87.23
2019-03-05T16:15:22.637Z,78.55
2019-03-05T16:17:51.137Z,66.27
2019-03-05T16:20:21.159Z,44.80
2019-03-05T16:22:51.215Z,43.97
2019-03-05T16:25:22.274Z,39.03
2019-03-05T16:27:50.757Z,37.38
2019-03-05T16:30:42.768Z,32.03
2019-03-05T16:33:15.900Z,32.93
2019-03-05T16:36:02.405Z,27.30
2019-03-05T16:38:44.449Z,22.17
2019-03-05T16:41:23.377Z,23.10
2019-03-05T16:44:09.857Z,20.30
2019-03-05T16:46:42.623Z,14.47
2019-03-05T16:49:18.789Z,14.80
2019-03-05T16:52:05.486Z,15.67
2019-03-05T16:54:41.444Z,16.13
2019-03-05T16:57:11.524Z,11.10
2019-03-05T16:59:44.108Z,22.00
2019-03-05T17:02:29.783Z,33.30
2019-03-05T17:05:08.807Z,19.90
2019-03-05T17:07:41.807Z,23.57
2019-03-05T17:10:13.411Z,16.87
2019-03-05T17:12:42.017Z,21.30
2019-03-05T17:15:11.187Z,16.00
2019-03-05T17:17:39.631Z,22.58
2019-03-05T17:20:10.923Z,22.67
2019-03-05T17:22:39.330Z,18.47
2019-03-05T17:25:13.614Z,21.07
2019-03-05T17:27:42.050Z,20.77
2019-03-05T17:30:13.566Z,23.00
2019-03-05T17:32:41.967Z,9.83
2019-03-05T17:35:11.362Z,20.90
2019-03-05T17:37:39.917Z,12.10
2019-03-05T17:40:13.305Z,15.83
2019-03-05T17:42:41.985Z,10.20
2019-03-05T17:45:21.768Z,8.50
2019-03-05T17:47:53.817Z,10.13
2019-03-05T17:50:22.259Z,13.00
2019-03-05T17:52:50.714Z,17.73
2019-03-05T17:55:24.659Z,14.07
2019-03-05T17:57:51.915Z,7.07
2019-03-05T18:00:23.215Z,21.43
2019-03-05T18:02:51.732Z,13.73
2019-03-05T18:05:20.142Z,7.80
2019-03-05T18:07:48.582Z,13.33
2019-03-05T18:10:17.440Z,14.03
2019-03-05T18:12:45.877Z,17.63
2019-03-05T18:15:17.680Z,27.53
2019-03-05T18:17:46.122Z,99.57
2019-03-05T18:20:17.658Z,90.13
2019-03-05T18:22:46.366Z,103.83
2019-03-05T18:25:16.122Z,94.60
2019-03-05T18:27:44.749Z,57.90
2019-03-05T18:30:22.109Z,54.87
2019-03-05T18:32:50.624Z,53.47
2019-03-05T18:35:20.087Z,47.70
2019-03-05T18:37:48.552Z,49.53
2019-03-05T18:40:21.347Z,41.03
2019-03-05T18:42:50.090Z,192.00
2019-03-05T18:45:33.693Z,170.23
2019-03-05T18:48:02.196Z,213.17
2019-03-05T18:50:30.692Z,323.93
2019-03-05T18:53:00.673Z,284.17
2019-03-05T18:55:29.570Z,232.80
2019-03-05T18:57:58.094Z,152.10
2019-03-05T19:00:28.444Z,162.20
2019-03-05T19:03:14.969Z,135.03
2019-03-05T19:05:43.469Z,99.27
2019-03-05T19:08:11.980Z,76.33
2019-03-05T19:10:40.646Z,76.07
2019-03-05T19:13:09.162Z,58.60
2019-03-05T19:15:37.761Z,45.63
2019-03-05T19:18:07.359Z,46.30
2019-03-05T19:20:35.786Z,120.73
2019-03-05T19:23:04.322Z,111.00
2019-03-05T19:25:35.098Z,134.27
2019-03-05T19:28:03.624Z,101.47
2019-03-05T19:30:40.201Z,83.67
2019-03-05T19:33:08.660Z,79.73
2019-03-05T19:35:37.088Z,71.93
2019-03-05T19:38:05.772Z,38.47
2019-03-05T19:40:36.990Z,25.73
2019-03-05T19:43:06.588Z,16.13
2019-03-05T19:45:35.181Z,7.83
2019-03-05T19:48:03.802Z,24.25
2019-03-05T19:50:32.304Z,9.03
2019-03-05T19:53:00.961Z,9.70
2019-03-05T19:55:30.134Z,9.43
2019-03-05T19:58:14.177Z,29.77
2019-03-05T20:00:47.304Z,11.33
2019-03-05T20:03:15.719Z,14.20
2019-03-05T20:05:44.224Z,5.17
2019-03-05T20:08:12.638Z,5.97
2019-03-05T20:10:41.128Z,4.63
2019-03-05T20:13:09.568Z,5.30
2019-03-05T20:15:38.978Z,1318.68
2019-03-05T20:18:07.595Z,912.92
2019-03-05T20:20:36.071Z,848.78
2019-03-05T20:23:05.228Z,574.33
2019-03-05T20:25:33.819Z,503.20
2019-03-05T20:28:02.252Z,322.40
2019-03-05T20:30:30.835Z,270.17
2019-03-05T20:32:59.268Z,197.70
2019-03-05T20:35:27.721Z,157.37
2019-03-05T20:37:56.230Z,127.93
2019-03-05T20:40:27.025Z,96.13
2019-03-05T20:42:55.508Z,93.37
2019-03-05T20:45:29.772Z,97.40
2019-03-05T20:47:58.571Z,86.57
2019-03-05T20:50:27.054Z,79.87
2019-03-05T20:52:55.633Z,95.50
2019-03-05T20:55:25.302Z,96.40
2019-03-05T20:57:53.749Z,88.63
2019-03-05T21:00:30.955Z,91.97
2019-03-05T21:03:04.499Z,75.73
2019-03-05T21:05:35.691Z,83.67
2019-03-05T21:08:04.691Z,88.80
2019-03-05T21:10:33.161Z,81.67
2019-03-05T21:13:02.793Z,74.70
2019-03-05T21:15:33.035Z,73.10
2019-03-05T21:18:02.441Z,69.97
2019-03-05T21:20:30.985Z,71.83
2019-03-05T21:22:59.415Z,62.77
2019-03-05T21:25:27.853Z,65.47
2019-03-05T21:27:56.383Z,69.10
2019-03-05T21:30:28.763Z,72.07
2019-03-05T21:32:57.257Z,70.43
2019-03-05T21:35:25.817Z,64.90
2019-03-05T21:37:54.617Z,69.03
2019-03-05T21:40:27.877Z,66.53
2019-03-05T21:42:56.377Z,65.73
2019-03-05T21:45:43.005Z,53.83
2019-03-05T21:48:11.425Z,62.23
2019-03-05T21:50:39.836Z,54.80
2019-03-05T21:53:08.382Z,59.33
2019-03-05T21:55:36.889Z,59.87
2019-03-05T21:58:05.474Z,58.40
2019-03-05T22:00:39.665Z,58.03
2019-03-05T22:03:08.162Z,64.30
2019-03-05T22:05:36.607Z,56.03
2019-03-05T22:08:05.035Z,57.40
2019-03-05T22:10:33.906Z,54.17
2019-03-05T22:13:02.369Z,54.23
2019-03-05T22:15:32.543Z,51.33
2019-03-05T22:18:00.957Z,48.77
2019-03-05T22:20:29.402Z,42.90
2019-03-05T22:22:58.215Z,48.37
2019-03-05T22:25:28.762Z,46.33
2019-03-05T22:27:56.799Z,54.47
2019-03-05T22:30:33.660Z,54.73
2019-03-05T22:33:02.137Z,48.77
2019-03-05T22:35:30.657Z,46.17
2019-03-05T22:37:59.115Z,47.37
2019-03-05T22:40:28.362Z,46.63
2019-03-05T22:42:57.323Z,43.77
2019-03-05T22:45:33.001Z,44.53
2019-03-05T22:48:01.444Z,37.33
2019-03-05T22:50:29.937Z,42.23
2019-03-05T22:52:58.381Z,43.83
2019-03-05T22:55:26.803Z,44.13
2019-03-05T22:57:55.599Z,37.63
2019-03-05T23:00:37.900Z,43.03
2019-03-05T23:03:09.233Z,42.47
2019-03-05T23:05:37.645Z,31.63
2019-03-05T23:08:06.624Z,41.97
2019-03-05T23:10:35.305Z,39.87
2019-03-05T23:13:04.321Z,44.93
2019-03-05T23:15:33.755Z,37.27
2019-03-05T23:18:02.206Z,37.23
2019-03-05T23:20:31.168Z,38.90
2019-03-05T23:22:59.644Z,36.03
2019-03-05T23:25:28.428Z,34.67
2019-03-05T23:27:57.077Z,38.47
2019-03-05T23:30:25.522Z,29.40
2019-03-05T23:32:54.424Z,29.80
2019-03-05T23:35:22.928Z,36.33
2019-03-05T23:37:51.441Z,33.60
2019-03-05T23:40:20.161Z,24.80
2019-03-05T23:42:48.646Z,31.53
2019-03-05T23:45:18.604Z,31.47
2019-03-05T23:47:47.119Z,27.83
2019-03-05T23:50:16.397Z,31.00
2019-03-05T23:52:45.104Z,31.73
2019-03-05T23:55:14.262Z,30.37
2019-03-05T23:57:42.958Z,25.93
